Princeton, ID

2:10 AM PDT on August 21, 2014 (GMT -0700)
Potlatch | Change Station
CLOSE
Current Station
Personal Weather Station
Location: Potlatch, ID
Elevation: 2600 ft
Nearby Weather Stations

Elev 2600 ft 46.93 °N, 116.90 °W | Updated 2 seconds ago

Clear
Clear
58.3 °F
Feels Like 58.3 °F
N
0.0
Wind Variable Wind from West
Gusts 0.0 mph

Today
High -- | Low -- °F
--% Chance of Precip.
Yesterday
High -- | Low -- °F
Precip. -- in
5:52 AM 7:47 PM
Waning Crescent, 15% visible
Pressure 29.92 in
Visibility 10.0 miles
Clouds Clear
Dew Point 50 °F
Humidity 74%
Rainfall 0.18 in
Snow Depth Not available.
UV 0 out of 12
Pollen 7.40 out of 12
Air Quality Not available.
Flu Activity Not available.
METAR KPUW 210853Z AUTO 00000KT 10SM CLR 12/08 A2995 RMK AO2 SLP130 T01220078 53008

More Conditions Fewer Conditions

Pressure 29.92 in
Visibility 10.0 miles
Clouds Clear
Dew Point 50 °F
Humidity 74%
Rainfall 0.18 in
Snow Depth Not available.
UV 0 out of 12
Pollen 7.40 out of 12
Air Quality Not available.
Flu Activity Not available.
METAR KPUW 210853Z AUTO 00000KT 10SM CLR 12/08 A2995 RMK AO2 SLP130 T01220078 53008

More Conditions Fewer Conditions

10-Day Weather Forecast

Almanac

Astronomy

Aug. 21, 2014 Rise Set
Actual Time 5:52 AM PDT 7:47 PM PDT
Civil Twilight 5:19 AM PDT 8:19 PM PDT
Nautical Twilight 4:39 AM PDT 8:59 PM PDT
Astronomical Twilight 3:55 AM PDT 9:43 PM PDT
Moon 2:20 AM PDT 5:24 PM PDT
Length of Visible Light 14h 59m
Length of Day
13h 54m
Tomorrow will be 3m 6s shorter.
Waning Crescent, 15% of the Moon is Illuminated
Today
Waning Crescent
Aug 25
New
Sep 2
First Quarter
Sep 8
Full
Sep 15
Last Quarter

Today's Extremes

State Highs State Lows

Community

WunderPhotos

Upload Photos

1,745,864 photos uploaded!

Nearby

Snow Depth

Station Depth Elevation
Moscow Mountain 1 in 4700 ft
Sherwin 0 in 3200 ft
Elk Butte 0 in 5690 ft
Lost Lake 0 in 6110 ft
Hemlock Butte 1 in 5810 ft

Earthquake Activity

City Distance Mag. Time & Date
No recent earthquake activity has been reported nearby.
Minimum magnitude displayed is 2.5.

Coastal Water Temperatures

Place Temperature
No Stations Reporting

Nearby Weather Stations